createdAt,value
2017-12-21T00:02:20.964Z,19.00
2017-12-21T00:04:47.624Z,17.00
2017-12-21T00:07:14.276Z,17.90
2017-12-21T00:09:40.962Z,17.70
2017-12-21T00:12:07.617Z,18.27
2017-12-21T00:14:34.279Z,16.97
2017-12-21T00:17:00.950Z,17.37
2017-12-21T00:19:27.608Z,19.30
2017-12-21T00:21:54.279Z,17.10
2017-12-21T00:24:20.928Z,18.17
2017-12-21T00:26:47.592Z,18.90
2017-12-21T00:29:14.257Z,20.27
2017-12-21T00:31:40.937Z,19.53
2017-12-21T00:34:07.596Z,21.00
2017-12-21T00:36:34.283Z,19.30
2017-12-21T00:39:01.002Z,19.50
2017-12-21T00:41:27.680Z,20.40
2017-12-21T00:43:54.345Z,21.70
2017-12-21T00:46:21.002Z,22.00
2017-12-21T00:48:47.682Z,19.30
2017-12-21T00:51:14.333Z,19.90
2017-12-21T00:53:41.004Z,21.60
2017-12-21T00:56:07.666Z,23.40
2017-12-21T00:58:34.336Z,20.23
2017-12-21T01:01:01.009Z,19.77
2017-12-21T01:03:27.681Z,20.30
2017-12-21T01:05:54.329Z,22.40
2017-12-21T01:08:20.988Z,20.20
2017-12-21T01:10:47.653Z,22.70
2017-12-21T01:13:14.307Z,22.10
2017-12-21T01:15:40.969Z,21.07
2017-12-21T01:18:07.651Z,21.97
2017-12-21T01:20:34.337Z,24.03
2017-12-21T01:23:00.989Z,20.97
2017-12-21T01:25:27.663Z,21.73
2017-12-21T01:27:54.317Z,20.80
2017-12-21T01:30:20.969Z,20.27
2017-12-21T01:32:47.646Z,19.30
2017-12-21T01:35:14.302Z,21.90
2017-12-21T01:37:40.973Z,20.43
2017-12-21T01:40:07.624Z,21.10
2017-12-21T01:42:34.288Z,21.70
2017-12-21T01:45:00.941Z,21.57
2017-12-21T01:47:27.618Z,23.80
2017-12-21T01:49:54.270Z,21.23
2017-12-21T01:52:20.932Z,24.47
2017-12-21T01:54:47.576Z,22.00
2017-12-21T01:57:14.262Z,22.27
2017-12-21T01:59:40.928Z,25.20
2017-12-21T02:02:07.589Z,21.43
2017-12-21T02:04:34.265Z,26.40
2017-12-21T02:07:00.913Z,24.50
2017-12-21T02:09:27.576Z,25.23
2017-12-21T02:11:54.228Z,25.70
2017-12-21T02:14:20.914Z,27.10
2017-12-21T02:16:47.579Z,23.43
2017-12-21T02:19:14.259Z,26.93
2017-12-21T02:21:40.900Z,23.20
2017-12-21T02:24:07.578Z,25.83
2017-12-21T02:26:34.237Z,25.13
2017-12-21T02:29:00.925Z,26.33
2017-12-21T02:31:27.577Z,25.80
2017-12-21T02:33:54.232Z,25.70
2017-12-21T02:36:20.896Z,25.60
2017-12-21T02:38:47.551Z,24.83
2017-12-21T02:41:14.240Z,25.17
2017-12-21T02:43:40.891Z,27.30
2017-12-21T02:46:07.553Z,28.87
2017-12-21T02:48:34.205Z,26.60
2017-12-21T02:51:00.872Z,28.60
2017-12-21T02:53:27.548Z,28.30
2017-12-21T02:55:54.244Z,31.50
2017-12-21T02:58:20.892Z,31.17
2017-12-21T03:00:47.549Z,28.67
2017-12-21T03:03:14.222Z,29.83
2017-12-21T03:05:40.881Z,29.93
2017-12-21T03:08:07.560Z,29.53
2017-12-21T03:10:34.427Z,32.10
2017-12-21T03:13:01.218Z,33.67
2017-12-21T03:15:27.860Z,30.80
2017-12-21T03:17:54.534Z,32.07
2017-12-21T03:20:21.196Z,32.10
2017-12-21T03:22:47.901Z,31.03
2017-12-21T03:25:14.577Z,30.93
2017-12-21T03:27:41.281Z,29.97
2017-12-21T03:30:07.930Z,29.90
2017-12-21T03:32:34.585Z,30.93
2017-12-21T03:35:01.252Z,30.87
2017-12-21T03:37:27.923Z,32.50
2017-12-21T03:39:54.588Z,28.90
2017-12-21T03:42:21.243Z,29.27
2017-12-21T03:44:47.903Z,27.40
2017-12-21T03:47:14.556Z,28.30
2017-12-21T03:49:41.234Z,27.60
2017-12-21T03:52:07.891Z,29.63
2017-12-21T03:54:34.592Z,28.57
2017-12-21T03:57:01.999Z,28.30
2017-12-21T03:59:28.684Z,28.40
2017-12-21T04:01:55.380Z,27.73
2017-12-21T04:04:22.119Z,31.30
2017-12-21T04:06:49.088Z,28.67
2017-12-21T04:09:15.828Z,27.20
2017-12-21T04:11:42.641Z,27.93
2017-12-21T04:14:09.333Z,28.07
2017-12-21T04:16:35.992Z,30.63
2017-12-21T04:19:03.514Z,29.30
2017-12-21T04:21:30.194Z,29.70
2017-12-21T04:23:56.849Z,28.53
2017-12-21T04:26:23.509Z,28.73
2017-12-21T04:28:50.356Z,26.73
2017-12-21T04:31:17.194Z,28.97
2017-12-21T04:33:43.860Z,29.00
2017-12-21T04:36:10.511Z,27.53
2017-12-21T04:38:37.357Z,28.43
2017-12-21T04:41:04.183Z,29.40
2017-12-21T04:43:30.853Z,29.47
2017-12-21T04:45:57.522Z,28.30
2017-12-21T04:48:24.278Z,27.73
2017-12-21T04:50:50.935Z,30.50
2017-12-21T04:53:17.636Z,30.40
2017-12-21T04:55:44.341Z,29.57
2017-12-21T04:58:11.058Z,29.90
2017-12-21T05:00:37.995Z,31.60
2017-12-21T05:03:04.681Z,30.37
2017-12-21T05:05:31.357Z,33.83
2017-12-21T05:07:58.052Z,30.30
2017-12-21T05:10:24.761Z,32.67
2017-12-21T05:12:51.725Z,32.53
2017-12-21T05:15:37.671Z,33.97
2017-12-21T05:18:05.449Z,35.10
2017-12-21T05:20:32.125Z,35.83
2017-12-21T05:22:59.097Z,35.37
2017-12-21T05:25:25.782Z,33.93
2017-12-21T05:27:54.581Z,36.00
2017-12-21T05:30:21.361Z,36.83
2017-12-21T05:32:49.122Z,34.10
2017-12-21T05:35:15.772Z,32.97
2017-12-21T05:37:42.469Z,33.30
2017-12-21T05:40:09.330Z,35.13
2017-12-21T05:42:36.126Z,34.50
2017-12-21T05:45:02.857Z,36.73
2017-12-21T05:47:29.644Z,36.00
2017-12-21T05:49:56.317Z,34.67
2017-12-21T05:52:23.004Z,31.50
2017-12-21T05:54:49.688Z,35.33
2017-12-21T05:57:16.772Z,34.00
2017-12-21T05:59:43.444Z,34.47
2017-12-21T06:02:10.191Z,35.30
2017-12-21T06:04:36.909Z,32.13
2017-12-21T06:07:03.592Z,33.87
2017-12-21T06:09:30.297Z,32.57
2017-12-21T06:11:56.946Z,34.27
2017-12-21T06:14:23.632Z,33.70
2017-12-21T06:16:50.343Z,29.83
2017-12-21T06:19:17.072Z,32.30
2017-12-21T06:21:43.786Z,30.17
2017-12-21T06:24:10.464Z,30.63
2017-12-21T06:26:37.847Z,31.80
2017-12-21T06:29:04.576Z,31.33
2017-12-21T06:31:31.487Z,30.70
2017-12-21T06:33:58.147Z,30.73
2017-12-21T06:36:24.854Z,31.47
2017-12-21T06:38:51.813Z,28.60
2017-12-21T06:41:19.941Z,29.63
2017-12-21T06:43:47.289Z,29.90
2017-12-21T06:46:13.945Z,28.23
2017-12-21T06:48:40.612Z,27.63
2017-12-21T06:51:07.276Z,27.07
2017-12-21T06:53:35.308Z,29.77
2017-12-21T06:56:01.994Z,27.93
2017-12-21T06:58:28.728Z,28.80
2017-12-21T07:00:55.377Z,26.60
2017-12-21T07:03:22.045Z,28.23
2017-12-21T07:05:48.703Z,28.57
2017-12-21T07:08:15.371Z,26.57
2017-12-21T07:10:42.041Z,28.77
2017-12-21T07:13:09.776Z,27.30
2017-12-21T07:15:36.489Z,26.50
2017-12-21T07:18:03.337Z,27.50
2017-12-21T07:20:30.002Z,25.93
2017-12-21T07:22:56.933Z,28.43
2017-12-21T07:25:23.600Z,26.30
2017-12-21T07:27:50.265Z,25.67
2017-12-21T07:30:16.971Z,29.17
2017-12-21T07:32:44.463Z,27.17
2017-12-21T07:35:11.296Z,26.47
2017-12-21T07:37:37.954Z,26.10
2017-12-21T07:40:04.597Z,27.47
2017-12-21T07:42:31.689Z,27.50
2017-12-21T07:44:58.945Z,28.50
2017-12-21T07:47:25.604Z,26.13
2017-12-21T07:49:52.300Z,24.43
2017-12-21T07:52:19.265Z,28.17
2017-12-21T07:54:45.934Z,25.13
2017-12-21T07:57:13.009Z,25.80
2017-12-21T07:59:39.724Z,24.10
2017-12-21T08:02:06.384Z,24.00
2017-12-21T08:04:33.045Z,24.27
2017-12-21T08:06:59.709Z,23.73
2017-12-21T08:09:26.492Z,23.90
2017-12-21T08:11:53.285Z,24.50
2017-12-21T08:14:19.969Z,20.80
2017-12-21T08:16:47.577Z,23.80
2017-12-21T08:19:14.260Z,19.47
2017-12-21T08:21:40.975Z,20.40
2017-12-21T08:24:07.628Z,19.83
2017-12-21T08:26:34.450Z,20.17
2017-12-21T08:29:01.221Z,18.73
2017-12-21T08:31:28.241Z,16.53
2017-12-21T08:33:54.930Z,17.00
2017-12-21T08:36:21.832Z,16.83
2017-12-21T08:38:48.517Z,15.77
2017-12-21T08:41:15.825Z,16.70
2017-12-21T08:43:52.710Z,14.60
2017-12-21T08:46:19.841Z,15.70
2017-12-21T08:48:46.492Z,18.27
2017-12-21T08:51:13.198Z,16.67
2017-12-21T08:53:40.244Z,17.77
2017-12-21T08:56:07.243Z,16.60
2017-12-21T08:58:34.110Z,16.23
2017-12-21T09:01:00.757Z,14.50
2017-12-21T09:03:30.243Z,15.60
2017-12-21T09:05:57.284Z,15.43
2017-12-21T09:08:23.977Z,14.23
2017-12-21T09:10:50.642Z,14.77
2017-12-21T09:13:18.919Z,15.90
2017-12-21T09:15:47.331Z,15.10
2017-12-21T09:18:15.619Z,14.90
2017-12-21T09:20:42.292Z,15.90
2017-12-21T09:23:09.160Z,14.40
2017-12-21T09:25:35.883Z,15.10
2017-12-21T09:28:02.630Z,13.60
2017-12-21T09:30:29.484Z,13.30
2017-12-21T09:32:56.180Z,14.20
2017-12-21T09:35:22.976Z,13.97
2017-12-21T09:37:49.908Z,12.27
2017-12-21T09:40:17.747Z,14.00
2017-12-21T09:42:44.501Z,12.80
2017-12-21T09:45:11.227Z,13.97
2017-12-21T09:47:39.105Z,13.13
2017-12-21T09:50:05.784Z,14.83
2017-12-21T09:52:32.502Z,13.43
2017-12-21T09:54:59.168Z,14.03
2017-12-21T09:57:25.876Z,13.80
2017-12-21T09:59:52.760Z,12.23
2017-12-21T10:02:19.704Z,13.20
2017-12-21T10:04:46.373Z,13.97
2017-12-21T10:07:13.052Z,13.73
2017-12-21T10:09:39.790Z,14.03
2017-12-21T10:12:06.456Z,12.57
2017-12-21T10:14:33.104Z,12.13
2017-12-21T10:17:00.126Z,14.20
2017-12-21T10:19:26.793Z,13.87
2017-12-21T10:21:53.466Z,12.93
2017-12-21T10:24:20.167Z,13.10
2017-12-21T10:26:46.812Z,12.60
2017-12-21T10:29:13.502Z,13.30
2017-12-21T10:31:40.165Z,13.33
2017-12-21T10:34:08.536Z,12.50
2017-12-21T10:36:35.264Z,10.70
2017-12-21T10:39:02.072Z,10.83
2017-12-21T10:41:29.171Z,12.20
2017-12-21T10:43:55.968Z,10.53
2017-12-21T10:46:22.646Z,13.07
2017-12-21T10:48:49.296Z,12.87
2017-12-21T10:51:15.972Z,11.63
2017-12-21T10:53:43.005Z,13.00
2017-12-21T10:56:10.859Z,13.77
2017-12-21T10:58:38.533Z,15.27
2017-12-21T11:01:05.213Z,14.77
2017-12-21T11:03:32.169Z,14.00
2017-12-21T11:05:58.825Z,14.60
2017-12-21T11:08:25.525Z,13.60
2017-12-21T11:10:52.197Z,13.70
2017-12-21T11:13:18.874Z,14.37
2017-12-21T11:15:45.540Z,15.07
2017-12-21T11:18:12.241Z,15.27
2017-12-21T11:20:51.535Z,13.97
2017-12-21T11:23:18.306Z,16.07
2017-12-21T11:25:45.211Z,15.20
2017-12-21T11:28:40.115Z,15.43
2017-12-21T11:31:06.773Z,16.80
2017-12-21T11:33:33.509Z,15.60
2017-12-21T11:36:01.014Z,16.80
2017-12-21T11:38:27.697Z,16.93
2017-12-21T11:43:48.937Z,18.87
2017-12-21T11:46:16.156Z,19.70
2017-12-21T11:48:54.243Z,21.03
2017-12-21T11:51:20.897Z,20.47
2017-12-21T11:53:48.112Z,20.63
2017-12-21T11:56:17.481Z,20.90
2017-12-21T11:58:44.809Z,21.33
2017-12-21T12:01:11.813Z,19.57
2017-12-21T12:03:38.482Z,18.90
2017-12-21T12:06:05.358Z,18.90
2017-12-21T12:08:32.412Z,19.50
2017-12-21T12:10:59.250Z,17.83
2017-12-21T12:13:26.080Z,18.07
2017-12-21T12:15:52.985Z,17.97
2017-12-21T12:18:19.670Z,17.20
2017-12-21T12:20:46.934Z,17.90
2017-12-21T12:23:13.860Z,18.73
2017-12-21T12:25:40.562Z,17.53
2017-12-21T12:28:07.246Z,17.73
2017-12-21T12:30:33.928Z,21.33
2017-12-21T12:33:00.766Z,20.03
2017-12-21T12:35:27.568Z,20.90
2017-12-21T12:37:54.248Z,22.50
2017-12-21T12:40:21.002Z,20.30
2017-12-21T12:42:48.812Z,20.80
2017-12-21T12:45:29.108Z,20.50
2017-12-21T12:48:05.809Z,20.93
2017-12-21T12:50:34.445Z,22.07
2017-12-21T12:53:01.196Z,21.40
2017-12-21T12:55:28.348Z,19.77
2017-12-21T12:57:56.709Z,20.83
2017-12-21T13:00:23.387Z,19.93
2017-12-21T13:02:51.293Z,20.03
2017-12-21T13:05:17.993Z,21.33
2017-12-21T13:07:44.681Z,22.43
2017-12-21T13:10:11.372Z,22.17
2017-12-21T13:12:38.263Z,22.53
2017-12-21T13:15:05.052Z,22.80
2017-12-21T13:17:31.713Z,24.13
2017-12-21T13:19:58.505Z,24.80
2017-12-21T13:22:26.557Z,22.70
2017-12-21T13:24:53.245Z,23.30
2017-12-21T13:27:21.082Z,21.17
2017-12-21T13:29:48.606Z,21.77
2017-12-21T13:32:15.348Z,20.93
2017-12-21T13:34:42.190Z,23.70
2017-12-21T13:37:08.912Z,21.37
2017-12-21T13:39:36.423Z,21.40
2017-12-21T13:42:09.734Z,22.07
2017-12-21T13:44:37.522Z,22.23
2017-12-21T13:47:06.444Z,20.83
2017-12-21T13:49:33.308Z,22.00
2017-12-21T13:52:00.465Z,19.97
2017-12-21T13:54:27.188Z,20.83
2017-12-21T13:56:53.873Z,20.50
2017-12-21T13:59:21.077Z,21.57
2017-12-21T14:01:47.763Z,21.37
2017-12-21T14:04:14.564Z,20.47
2017-12-21T14:06:41.261Z,20.07
2017-12-21T14:09:09.011Z,21.20
2017-12-21T14:11:35.681Z,19.80
2017-12-21T14:14:02.334Z,21.40
2017-12-21T14:16:29.261Z,21.47
2017-12-21T14:18:56.036Z,23.60
2017-12-21T14:21:22.721Z,24.10
2017-12-21T14:23:49.513Z,24.43
2017-12-21T14:26:16.212Z,24.97
2017-12-21T14:28:42.873Z,25.10
2017-12-21T14:31:12.463Z,26.00
2017-12-21T14:33:39.254Z,24.00
2017-12-21T14:36:05.973Z,23.67
2017-12-21T14:38:32.778Z,26.30
2017-12-21T14:40:59.430Z,26.07
2017-12-21T14:43:26.170Z,24.73
2017-12-21T14:45:52.844Z,24.30
2017-12-21T14:48:19.583Z,23.10
2017-12-21T14:50:46.261Z,25.50
2017-12-21T14:53:13.110Z,26.07
2017-12-21T14:55:40.034Z,25.00
2017-12-21T14:58:06.724Z,26.63
2017-12-21T15:00:33.830Z,25.93
2017-12-21T15:03:00.482Z,27.90
2017-12-21T15:05:29.604Z,26.07
2017-12-21T15:07:56.249Z,26.30
2017-12-21T15:10:22.909Z,26.63
2017-12-21T15:12:49.582Z,25.20
2017-12-21T15:15:16.712Z,25.93
2017-12-21T15:17:43.607Z,25.50
2017-12-21T15:20:11.570Z,25.33
2017-12-21T15:22:38.254Z,23.93
2017-12-21T15:25:04.965Z,25.07
2017-12-21T15:27:31.637Z,25.10
2017-12-21T15:29:58.751Z,25.70
2017-12-21T15:32:25.506Z,25.80
2017-12-21T15:34:52.209Z,26.47
2017-12-21T15:37:18.889Z,26.00
2017-12-21T15:39:45.581Z,24.10
2017-12-21T15:42:12.368Z,24.63
2017-12-21T15:44:39.329Z,25.13
2017-12-21T15:47:05.987Z,23.93
2017-12-21T15:49:32.704Z,24.80
2017-12-21T15:51:59.378Z,24.50
2017-12-21T15:54:26.080Z,24.27
2017-12-21T15:56:53.010Z,25.70
2017-12-21T15:59:19.678Z,26.83
2017-12-21T16:01:46.375Z,26.50
2017-12-21T16:04:13.058Z,24.97
2017-12-21T16:06:39.729Z,26.00
2017-12-21T16:09:07.029Z,27.70
2017-12-21T16:11:33.888Z,28.60
2017-12-21T16:14:00.579Z,27.20
2017-12-21T16:16:27.253Z,27.60
2017-12-21T16:18:53.937Z,27.83
2017-12-21T16:21:20.652Z,28.90
2017-12-21T16:23:47.359Z,28.20
2017-12-21T16:26:14.062Z,29.40
2017-12-21T16:28:40.720Z,27.53
2017-12-21T16:31:07.400Z,29.73
2017-12-21T16:33:34.065Z,29.43
2017-12-21T16:36:00.832Z,29.67
2017-12-21T16:38:27.515Z,31.30
2017-12-21T16:40:54.440Z,32.23
2017-12-21T16:43:21.164Z,31.23
2017-12-21T16:45:49.920Z,33.40
2017-12-21T16:48:16.613Z,34.13
2017-12-21T16:50:43.274Z,32.40
2017-12-21T16:53:09.933Z,33.60
2017-12-21T16:55:36.601Z,34.20
2017-12-21T16:58:03.290Z,33.63
2017-12-21T17:00:29.965Z,32.80
2017-12-21T17:02:56.653Z,31.87
2017-12-21T17:05:23.398Z,34.10
2017-12-21T17:07:50.046Z,35.27
2017-12-21T17:10:17.113Z,34.67
2017-12-21T17:12:43.768Z,33.90
2017-12-21T17:15:10.721Z,33.03
2017-12-21T17:17:37.742Z,36.00
2017-12-21T17:20:05.314Z,34.67
2017-12-21T17:22:31.984Z,33.90
2017-12-21T17:24:58.634Z,32.47
2017-12-21T17:27:25.365Z,35.17
2017-12-21T17:29:52.044Z,34.13
2017-12-21T17:32:18.825Z,36.57
2017-12-21T17:34:45.468Z,33.77
2017-12-21T17:37:12.261Z,37.57
2017-12-21T17:39:38.927Z,34.77
2017-12-21T17:42:06.840Z,36.70
2017-12-21T17:44:33.506Z,33.37
2017-12-21T17:47:00.172Z,35.67
2017-12-21T17:49:26.825Z,37.57
2017-12-21T17:51:53.504Z,34.27
2017-12-21T17:54:20.188Z,36.37
2017-12-21T17:56:46.895Z,34.80
2017-12-21T17:59:13.637Z,34.90
2017-12-21T18:01:40.310Z,33.80
2017-12-21T18:04:06.983Z,35.53
2017-12-21T18:06:33.692Z,35.63
2017-12-21T18:09:00.375Z,32.23
2017-12-21T18:11:27.017Z,34.70
2017-12-21T18:13:53.686Z,37.23
2017-12-21T18:16:20.345Z,36.67
2017-12-21T18:18:47.005Z,36.63
2017-12-21T18:21:13.806Z,37.23
2017-12-21T18:23:40.480Z,40.70
2017-12-21T18:26:07.369Z,39.17
2017-12-21T18:28:34.029Z,42.53
2017-12-21T18:31:00.727Z,41.17
2017-12-21T18:33:27.399Z,43.57
2017-12-21T18:35:54.061Z,46.03
2017-12-21T18:38:20.888Z,42.50
2017-12-21T18:40:47.592Z,41.77
2017-12-21T18:43:14.308Z,37.97
2017-12-21T18:45:42.359Z,42.70
2017-12-21T18:48:09.065Z,38.87
2017-12-21T18:50:35.742Z,41.53
2017-12-21T18:53:02.414Z,41.80
2017-12-21T18:55:29.322Z,36.07
2017-12-21T18:57:55.977Z,38.43
2017-12-21T19:00:22.658Z,37.33
2017-12-21T19:02:49.310Z,37.50
2017-12-21T19:05:16.031Z,35.30
2017-12-21T19:07:42.689Z,36.77
2017-12-21T19:10:09.358Z,37.37
2017-12-21T19:12:36.020Z,36.43
2017-12-21T19:15:02.743Z,36.10
2017-12-21T19:17:29.400Z,37.00
2017-12-21T19:19:56.084Z,35.40
2017-12-21T19:22:22.824Z,36.80
2017-12-21T19:24:49.488Z,35.83
2017-12-21T19:27:16.153Z,36.70
2017-12-21T19:29:42.798Z,34.80
2017-12-21T19:32:09.469Z,34.47
2017-12-21T19:34:36.124Z,33.67
2017-12-21T19:37:02.821Z,36.77
2017-12-21T19:39:29.468Z,39.73
2017-12-21T19:41:56.144Z,35.47
2017-12-21T19:44:22.792Z,37.23
2017-12-21T19:46:49.469Z,33.90
2017-12-21T19:49:16.129Z,31.90
2017-12-21T19:51:42.949Z,34.60
2017-12-21T19:54:09.617Z,32.63
2017-12-21T19:56:36.269Z,32.50
2017-12-21T19:59:02.950Z,32.83
2017-12-21T20:01:29.605Z,31.53
2017-12-21T20:03:56.276Z,29.90
2017-12-21T20:06:24.131Z,31.20
2017-12-21T20:08:50.790Z,30.50
2017-12-21T20:11:17.440Z,33.57
2017-12-21T20:13:44.155Z,28.97
2017-12-21T20:16:10.923Z,30.07
2017-12-21T20:18:37.573Z,30.37
2017-12-21T20:21:04.242Z,28.13
2017-12-21T20:23:30.898Z,31.40
2017-12-21T20:25:57.608Z,31.23
2017-12-21T20:28:24.252Z,30.73
2017-12-21T20:30:50.925Z,31.60
2017-12-21T20:33:17.581Z,29.30
2017-12-21T20:35:44.278Z,28.57
2017-12-21T20:38:10.930Z,29.13
2017-12-21T20:40:37.576Z,30.70
2017-12-21T20:43:04.326Z,29.20
2017-12-21T20:45:30.966Z,29.87
2017-12-21T20:47:57.657Z,28.93
2017-12-21T20:50:24.418Z,30.10
2017-12-21T20:52:51.080Z,29.43
2017-12-21T20:55:17.741Z,27.53
2017-12-21T20:57:44.422Z,28.50
2017-12-21T21:00:11.097Z,27.80
2017-12-21T21:02:37.784Z,27.27
2017-12-21T21:05:04.440Z,26.87
2017-12-21T21:07:31.108Z,28.73
2017-12-21T21:09:57.773Z,26.13
2017-12-21T21:12:24.421Z,25.20
2017-12-21T21:14:51.090Z,25.17
2017-12-21T21:17:17.758Z,24.27
2017-12-21T21:19:44.429Z,24.57
2017-12-21T21:22:11.192Z,24.60
2017-12-21T21:24:38.783Z,23.03
2017-12-21T21:27:05.433Z,25.77
2017-12-21T21:29:32.081Z,25.30
2017-12-21T21:31:58.745Z,24.53
2017-12-21T21:34:25.435Z,21.80
2017-12-21T21:36:52.100Z,24.70
2017-12-21T21:39:18.758Z,23.93
2017-12-21T21:41:45.431Z,23.00
2017-12-21T21:44:12.086Z,20.70
2017-12-21T21:46:38.753Z,23.00
2017-12-21T21:49:05.400Z,25.37
2017-12-21T21:51:32.061Z,23.60
2017-12-21T21:53:58.726Z,23.53
2017-12-21T21:56:25.411Z,23.67
2017-12-21T21:58:52.077Z,23.43
2017-12-21T22:01:18.729Z,20.50
2017-12-21T22:03:45.414Z,21.33
2017-12-21T22:06:12.090Z,21.57
2017-12-21T22:08:38.752Z,22.70
2017-12-21T22:11:05.407Z,23.40
2017-12-21T22:13:32.096Z,20.80
2017-12-21T22:15:58.781Z,20.87
2017-12-21T22:18:25.424Z,21.77
2017-12-21T22:20:52.085Z,23.70
2017-12-21T22:23:18.750Z,21.97
2017-12-21T22:25:45.416Z,24.67
2017-12-21T22:28:12.081Z,23.70
2017-12-21T22:30:38.753Z,22.07
2017-12-21T22:33:05.415Z,20.30
2017-12-21T22:35:32.066Z,23.83
2017-12-21T22:37:58.744Z,21.57
2017-12-21T22:40:25.394Z,21.20
2017-12-21T22:42:52.069Z,23.30
2017-12-21T22:45:18.742Z,23.33
2017-12-21T22:47:45.402Z,20.87
2017-12-21T22:50:12.053Z,22.00
2017-12-21T22:52:38.737Z,22.17
2017-12-21T22:55:05.385Z,20.83
2017-12-21T22:57:32.065Z,20.37
2017-12-21T22:59:58.716Z,22.80
2017-12-21T23:02:25.389Z,20.93
2017-12-21T23:04:52.159Z,21.97
2017-12-21T23:07:18.846Z,20.87
2017-12-21T23:09:45.509Z,21.53
2017-12-21T23:12:12.176Z,21.10
2017-12-21T23:14:38.845Z,19.70
2017-12-21T23:17:05.500Z,22.80
2017-12-21T23:19:32.169Z,21.93
2017-12-21T23:21:58.818Z,21.70
2017-12-21T23:24:25.498Z,24.23
2017-12-21T23:26:52.145Z,23.37
2017-12-21T23:29:18.815Z,21.57
2017-12-21T23:31:45.508Z,21.60
2017-12-21T23:34:12.304Z,25.10
2017-12-21T23:36:38.997Z,23.03
2017-12-21T23:39:05.666Z,24.57
2017-12-21T23:41:32.364Z,23.10
2017-12-21T23:43:59.036Z,24.43
2017-12-21T23:46:25.695Z,23.60
2017-12-21T23:48:52.440Z,23.30
2017-12-21T23:51:19.097Z,23.43
2017-12-21T23:53:45.805Z,22.87
2017-12-21T23:56:12.460Z,23.87
2017-12-21T23:58:39.136Z,24.70
